sensor_id;sensor_type;location;lat;lon;timestamp;P1;durP1;ratioP1;P2;durP2;ratioP2
44147;SDS011;29810;55.848;37.368;2022-11-09T00:00:44;25.20;;;19.17;;
44147;SDS011;29810;55.848;37.368;2022-11-09T00:03:46;26.12;;;18.80;;
44147;SDS011;29810;55.848;37.368;2022-11-09T00:06:48;26.77;;;19.35;;
44147;SDS011;29810;55.848;37.368;2022-11-09T00:09:52;25.35;;;18.73;;
44147;SDS011;29810;55.848;37.368;2022-11-09T00:12:54;26.58;;;19.45;;
44147;SDS011;29810;55.848;37.368;2022-11-09T00:15:58;26.10;;;18.75;;
44147;SDS011;29810;55.848;37.368;2022-11-09T00:19:00;25.58;;;19.08;;
44147;SDS011;29810;55.848;37.368;2022-11-09T00:22:02;26.12;;;19.12;;
44147;SDS011;29810;55.848;37.368;2022-11-09T00:25:05;25.70;;;18.60;;
44147;SDS011;29810;55.848;37.368;2022-11-09T00:28:08;27.13;;;19.37;;
44147;SDS011;29810;55.848;37.368;2022-11-09T00:31:10;31.25;;;20.52;;
44147;SDS011;29810;55.848;37.368;2022-11-09T00:34:13;31.65;;;20.55;;
44147;SDS011;29810;55.848;37.368;2022-11-09T00:37:16;29.48;;;20.00;;
44147;SDS011;29810;55.848;37.368;2022-11-09T00:40:18;29.40;;;20.67;;
44147;SDS011;29810;55.848;37.368;2022-11-09T00:43:19;30.27;;;20.75;;
44147;SDS011;29810;55.848;37.368;2022-11-09T00:46:21;28.42;;;19.62;;
44147;SDS011;29810;55.848;37.368;2022-11-09T00:49:24;30.23;;;20.30;;
44147;SDS011;29810;55.848;37.368;2022-11-09T00:52:26;28.85;;;21.00;;
44147;SDS011;29810;55.848;37.368;2022-11-09T00:55:27;31.45;;;20.67;;
44147;SDS011;29810;55.848;37.368;2022-11-09T00:58:30;30.95;;;21.50;;
44147;SDS011;29810;55.848;37.368;2022-11-09T01:01:32;28.85;;;20.33;;
44147;SDS011;29810;55.848;37.368;2022-11-09T01:04:34;28.85;;;20.62;;
44147;SDS011;29810;55.848;37.368;2022-11-09T01:07:36;30.08;;;20.48;;
44147;SDS011;29810;55.848;37.368;2022-11-09T01:10:40;27.67;;;19.45;;
44147;SDS011;29810;55.848;37.368;2022-11-09T01:13:44;32.15;;;21.33;;
44147;SDS011;29810;55.848;37.368;2022-11-09T01:16:46;33.55;;;21.70;;
44147;SDS011;29810;55.848;37.368;2022-11-09T01:19:48;32.95;;;21.02;;
44147;SDS011;29810;55.848;37.368;2022-11-09T01:22:50;31.25;;;21.05;;
44147;SDS011;29810;55.848;37.368;2022-11-09T01:26:03;30.52;;;21.12;;
44147;SDS011;29810;55.848;37.368;2022-11-09T01:29:06;34.47;;;22.08;;
44147;SDS011;29810;55.848;37.368;2022-11-09T01:32:07;30.60;;;21.15;;
44147;SDS011;29810;55.848;37.368;2022-11-09T01:35:09;31.83;;;22.23;;
44147;SDS011;29810;55.848;37.368;2022-11-09T01:38:11;34.78;;;25.42;;
44147;SDS011;29810;55.848;37.368;2022-11-09T01:41:14;38.97;;;26.92;;
44147;SDS011;29810;55.848;37.368;2022-11-09T01:44:21;40.92;;;28.87;;
44147;SDS011;29810;55.848;37.368;2022-11-09T01:47:23;41.25;;;30.77;;
44147;SDS011;29810;55.848;37.368;2022-11-09T01:50:28;49.88;;;34.17;;
44147;SDS011;29810;55.848;37.368;2022-11-09T01:53:40;49.75;;;32.70;;
44147;SDS011;29810;55.848;37.368;2022-11-09T01:56:45;44.97;;;32.53;;
44147;SDS011;29810;55.848;37.368;2022-11-09T01:59:51;52.28;;;33.05;;
44147;SDS011;29810;55.848;37.368;2022-11-09T02:02:59;48.03;;;33.15;;
44147;SDS011;29810;55.848;37.368;2022-11-09T02:06:09;46.28;;;30.48;;
44147;SDS011;29810;55.848;37.368;2022-11-09T02:09:17;44.50;;;30.85;;
44147;SDS011;29810;55.848;37.368;2022-11-09T02:12:23;40.90;;;28.65;;
44147;SDS011;29810;55.848;37.368;2022-11-09T02:15:28;39.30;;;28.50;;
44147;SDS011;29810;55.848;37.368;2022-11-09T02:18:30;36.90;;;27.17;;
44147;SDS011;29810;55.848;37.368;2022-11-09T02:21:35;38.70;;;25.35;;
44147;SDS011;29810;55.848;37.368;2022-11-09T02:24:37;35.13;;;25.85;;
44147;SDS011;29810;55.848;37.368;2022-11-09T02:27:39;35.13;;;24.83;;
44147;SDS011;29810;55.848;37.368;2022-11-09T02:30:43;32.65;;;23.87;;
44147;SDS011;29810;55.848;37.368;2022-11-09T02:36:51;33.97;;;22.45;;
44147;SDS011;29810;55.848;37.368;2022-11-09T02:39:53;32.72;;;23.10;;
44147;SDS011;29810;55.848;37.368;2022-11-09T02:42:57;29.98;;;20.25;;
44147;SDS011;29810;55.848;37.368;2022-11-09T02:46:01;30.73;;;21.73;;
44147;SDS011;29810;55.848;37.368;2022-11-09T02:49:04;32.35;;;21.30;;
44147;SDS011;29810;55.848;37.368;2022-11-09T02:52:05;28.27;;;20.15;;
44147;SDS011;29810;55.848;37.368;2022-11-09T02:55:07;30.10;;;20.58;;
44147;SDS011;29810;55.848;37.368;2022-11-09T02:58:10;29.75;;;19.75;;
44147;SDS011;29810;55.848;37.368;2022-11-09T03:01:13;30.25;;;19.80;;
44147;SDS011;29810;55.848;37.368;2022-11-09T03:04:15;24.80;;;18.90;;
44147;SDS011;29810;55.848;37.368;2022-11-09T03:07:17;29.75;;;19.23;;
44147;SDS011;29810;55.848;37.368;2022-11-09T03:10:18;27.30;;;18.77;;
44147;SDS011;29810;55.848;37.368;2022-11-09T03:13:20;25.73;;;18.30;;
44147;SDS011;29810;55.848;37.368;2022-11-09T03:16:22;26.20;;;18.30;;
44147;SDS011;29810;55.848;37.368;2022-11-09T03:19:24;24.45;;;18.10;;
44147;SDS011;29810;55.848;37.368;2022-11-09T03:22:25;26.75;;;17.67;;
44147;SDS011;29810;55.848;37.368;2022-11-09T03:25:27;24.75;;;17.83;;
44147;SDS011;29810;55.848;37.368;2022-11-09T03:28:29;22.20;;;16.27;;
44147;SDS011;29810;55.848;37.368;2022-11-09T03:31:31;22.23;;;16.40;;
44147;SDS011;29810;55.848;37.368;2022-11-09T03:34:35;22.83;;;16.67;;
44147;SDS011;29810;55.848;37.368;2022-11-09T03:37:37;20.65;;;16.17;;
44147;SDS011;29810;55.848;37.368;2022-11-09T03:40:39;23.40;;;17.00;;
44147;SDS011;29810;55.848;37.368;2022-11-09T03:43:41;23.02;;;16.83;;
44147;SDS011;29810;55.848;37.368;2022-11-09T03:46:42;21.35;;;16.85;;
44147;SDS011;29810;55.848;37.368;2022-11-09T03:49:44;22.85;;;17.42;;
44147;SDS011;29810;55.848;37.368;2022-11-09T03:52:45;23.20;;;16.73;;
44147;SDS011;29810;55.848;37.368;2022-11-09T03:55:47;22.55;;;16.62;;
44147;SDS011;29810;55.848;37.368;2022-11-09T03:58:49;20.60;;;17.05;;
44147;SDS011;29810;55.848;37.368;2022-11-09T04:01:53;23.17;;;17.00;;
44147;SDS011;29810;55.848;37.368;2022-11-09T04:04:55;21.30;;;16.50;;
44147;SDS011;29810;55.848;37.368;2022-11-09T04:07:58;22.77;;;16.48;;
44147;SDS011;29810;55.848;37.368;2022-11-09T04:10:59;21.50;;;16.02;;
44147;SDS011;29810;55.848;37.368;2022-11-09T04:14:01;21.35;;;16.17;;
44147;SDS011;29810;55.848;37.368;2022-11-09T04:17:02;22.45;;;17.55;;
44147;SDS011;29810;55.848;37.368;2022-11-09T04:20:04;23.12;;;16.95;;
44147;SDS011;29810;55.848;37.368;2022-11-09T04:23:08;21.20;;;16.50;;
44147;SDS011;29810;55.848;37.368;2022-11-09T04:26:15;21.77;;;16.62;;
44147;SDS011;29810;55.848;37.368;2022-11-09T04:29:17;21.05;;;16.27;;
44147;SDS011;29810;55.848;37.368;2022-11-09T04:32:18;24.00;;;17.35;;
44147;SDS011;29810;55.848;37.368;2022-11-09T04:35:24;21.73;;;16.37;;
44147;SDS011;29810;55.848;37.368;2022-11-09T04:38:26;23.52;;;16.95;;
44147;SDS011;29810;55.848;37.368;2022-11-09T04:41:27;24.20;;;17.10;;
44147;SDS011;29810;55.848;37.368;2022-11-09T04:44:30;20.73;;;16.00;;
44147;SDS011;29810;55.848;37.368;2022-11-09T04:47:32;20.20;;;16.87;;
44147;SDS011;29810;55.848;37.368;2022-11-09T04:50:33;21.67;;;16.55;;
44147;SDS011;29810;55.848;37.368;2022-11-09T04:53:36;22.55;;;16.95;;
44147;SDS011;29810;55.848;37.368;2022-11-09T04:56:40;23.23;;;15.98;;
44147;SDS011;29810;55.848;37.368;2022-11-09T04:59:44;22.33;;;16.33;;
44147;SDS011;29810;55.848;37.368;2022-11-09T05:02:46;20.70;;;16.73;;
44147;SDS011;29810;55.848;37.368;2022-11-09T05:05:52;21.73;;;16.85;;
44147;SDS011;29810;55.848;37.368;2022-11-09T05:08:53;24.00;;;17.10;;
44147;SDS011;29810;55.848;37.368;2022-11-09T05:11:56;20.73;;;16.67;;
44147;SDS011;29810;55.848;37.368;2022-11-09T05:14:57;21.70;;;17.45;;
44147;SDS011;29810;55.848;37.368;2022-11-09T05:17:58;21.73;;;16.60;;
44147;SDS011;29810;55.848;37.368;2022-11-09T05:21:02;22.45;;;17.92;;
44147;SDS011;29810;55.848;37.368;2022-11-09T05:24:07;22.62;;;17.45;;
44147;SDS011;29810;55.848;37.368;2022-11-09T05:27:09;23.15;;;17.80;;
44147;SDS011;29810;55.848;37.368;2022-11-09T05:30:10;23.00;;;17.67;;
44147;SDS011;29810;55.848;37.368;2022-11-09T05:33:12;22.95;;;17.48;;
44147;SDS011;29810;55.848;37.368;2022-11-09T05:36:15;23.00;;;18.25;;
44147;SDS011;29810;55.848;37.368;2022-11-09T05:39:17;24.45;;;17.30;;
44147;SDS011;29810;55.848;37.368;2022-11-09T05:42:18;22.52;;;16.83;;
44147;SDS011;29810;55.848;37.368;2022-11-09T05:45:20;23.02;;;16.85;;
44147;SDS011;29810;55.848;37.368;2022-11-09T05:48:24;20.00;;;15.77;;
44147;SDS011;29810;55.848;37.368;2022-11-09T05:51:26;21.00;;;16.30;;
44147;SDS011;29810;55.848;37.368;2022-11-09T05:54:27;19.95;;;15.88;;
44147;SDS011;29810;55.848;37.368;2022-11-09T05:57:28;20.83;;;16.33;;
44147;SDS011;29810;55.848;37.368;2022-11-09T06:00:30;22.20;;;16.00;;
44147;SDS011;29810;55.848;37.368;2022-11-09T06:03:33;18.23;;;15.80;;
44147;SDS011;29810;55.848;37.368;2022-11-09T06:06:34;28.17;;;16.30;;
44147;SDS011;29810;55.848;37.368;2022-11-09T06:09:36;20.23;;;15.80;;
44147;SDS011;29810;55.848;37.368;2022-11-09T06:12:37;20.45;;;15.80;;
44147;SDS011;29810;55.848;37.368;2022-11-09T06:15:40;20.58;;;15.70;;
44147;SDS011;29810;55.848;37.368;2022-11-09T06:18:41;19.30;;;15.32;;
44147;SDS011;29810;55.848;37.368;2022-11-09T06:21:43;20.67;;;16.00;;
44147;SDS011;29810;55.848;37.368;2022-11-09T06:24:44;21.73;;;16.45;;
44147;SDS011;29810;55.848;37.368;2022-11-09T06:27:46;20.12;;;15.43;;
44147;SDS011;29810;55.848;37.368;2022-11-09T06:30:48;22.13;;;15.70;;
44147;SDS011;29810;55.848;37.368;2022-11-09T06:33:49;18.70;;;15.88;;
44147;SDS011;29810;55.848;37.368;2022-11-09T06:36:51;21.83;;;16.10;;
44147;SDS011;29810;55.848;37.368;2022-11-09T06:39:53;24.85;;;16.17;;
44147;SDS011;29810;55.848;37.368;2022-11-09T06:42:56;21.92;;;15.90;;
44147;SDS011;29810;55.848;37.368;2022-11-09T06:46:01;21.05;;;15.60;;
44147;SDS011;29810;55.848;37.368;2022-11-09T06:49:04;19.55;;;15.57;;
44147;SDS011;29810;55.848;37.368;2022-11-09T06:52:06;22.48;;;17.20;;
44147;SDS011;29810;55.848;37.368;2022-11-09T06:55:07;21.00;;;15.20;;
44147;SDS011;29810;55.848;37.368;2022-11-09T06:58:10;20.80;;;16.10;;
44147;SDS011;29810;55.848;37.368;2022-11-09T07:01:16;21.67;;;15.77;;
44147;SDS011;29810;55.848;37.368;2022-11-09T07:04:19;21.50;;;16.70;;
44147;SDS011;29810;55.848;37.368;2022-11-09T07:07:21;21.60;;;15.80;;
44147;SDS011;29810;55.848;37.368;2022-11-09T07:10:23;19.58;;;14.75;;
44147;SDS011;29810;55.848;37.368;2022-11-09T07:13:25;22.73;;;17.08;;
44147;SDS011;29810;55.848;37.368;2022-11-09T07:16:27;20.58;;;14.55;;
44147;SDS011;29810;55.848;37.368;2022-11-09T07:19:29;21.98;;;15.20;;
44147;SDS011;29810;55.848;37.368;2022-11-09T07:22:31;19.83;;;14.87;;
44147;SDS011;29810;55.848;37.368;2022-11-09T07:25:34;20.40;;;14.82;;
44147;SDS011;29810;55.848;37.368;2022-11-09T07:28:36;20.58;;;14.48;;
44147;SDS011;29810;55.848;37.368;2022-11-09T07:31:38;22.45;;;15.35;;
44147;SDS011;29810;55.848;37.368;2022-11-09T07:34:39;18.52;;;14.32;;
44147;SDS011;29810;55.848;37.368;2022-11-09T07:37:41;22.37;;;15.70;;
44147;SDS011;29810;55.848;37.368;2022-11-09T07:40:42;24.65;;;15.23;;
44147;SDS011;29810;55.848;37.368;2022-11-09T07:43:44;21.30;;;15.13;;
44147;SDS011;29810;55.848;37.368;2022-11-09T07:46:47;21.15;;;15.23;;
44147;SDS011;29810;55.848;37.368;2022-11-09T07:49:49;24.65;;;16.15;;
44147;SDS011;29810;55.848;37.368;2022-11-09T07:52:51;20.48;;;14.45;;
44147;SDS011;29810;55.848;37.368;2022-11-09T07:55:56;24.75;;;15.88;;
44147;SDS011;29810;55.848;37.368;2022-11-09T07:59:03;25.50;;;16.20;;
44147;SDS011;29810;55.848;37.368;2022-11-09T08:02:05;20.75;;;15.60;;
44147;SDS011;29810;55.848;37.368;2022-11-09T08:05:07;26.95;;;16.77;;
44147;SDS011;29810;55.848;37.368;2022-11-09T08:08:10;24.20;;;15.10;;
44147;SDS011;29810;55.848;37.368;2022-11-09T08:11:12;22.73;;;16.20;;
44147;SDS011;29810;55.848;37.368;2022-11-09T08:14:13;20.02;;;15.00;;
44147;SDS011;29810;55.848;37.368;2022-11-09T08:17:15;22.50;;;16.10;;
44147;SDS011;29810;55.848;37.368;2022-11-09T08:20:17;24.58;;;15.23;;
44147;SDS011;29810;55.848;37.368;2022-11-09T08:23:20;25.27;;;15.75;;
44147;SDS011;29810;55.848;37.368;2022-11-09T08:26:22;25.52;;;15.75;;
44147;SDS011;29810;55.848;37.368;2022-11-09T08:29:24;23.80;;;15.30;;
44147;SDS011;29810;55.848;37.368;2022-11-09T08:32:25;22.58;;;14.82;;
44147;SDS011;29810;55.848;37.368;2022-11-09T08:35:27;22.35;;;14.70;;
44147;SDS011;29810;55.848;37.368;2022-11-09T08:38:29;19.67;;;14.32;;
44147;SDS011;29810;55.848;37.368;2022-11-09T08:41:33;21.42;;;15.02;;
44147;SDS011;29810;55.848;37.368;2022-11-09T08:44:34;20.17;;;14.18;;
44147;SDS011;29810;55.848;37.368;2022-11-09T08:47:36;18.37;;;14.00;;
44147;SDS011;29810;55.848;37.368;2022-11-09T08:50:38;19.50;;;14.27;;
44147;SDS011;29810;55.848;37.368;2022-11-09T08:53:40;18.27;;;14.02;;
44147;SDS011;29810;55.848;37.368;2022-11-09T08:56:41;17.40;;;14.02;;
44147;SDS011;29810;55.848;37.368;2022-11-09T08:59:44;21.87;;;14.55;;
44147;SDS011;29810;55.848;37.368;2022-11-09T09:02:46;23.00;;;14.18;;
44147;SDS011;29810;55.848;37.368;2022-11-09T09:05:47;20.48;;;13.25;;
44147;SDS011;29810;55.848;37.368;2022-11-09T09:08:49;21.37;;;14.73;;
44147;SDS011;29810;55.848;37.368;2022-11-09T09:11:50;20.50;;;13.82;;
44147;SDS011;29810;55.848;37.368;2022-11-09T09:14:52;26.42;;;15.95;;
44147;SDS011;29810;55.848;37.368;2022-11-09T09:17:53;25.48;;;14.68;;
44147;SDS011;29810;55.848;37.368;2022-11-09T09:20:55;19.42;;;13.75;;
44147;SDS011;29810;55.848;37.368;2022-11-09T09:23:56;20.62;;;14.23;;
44147;SDS011;29810;55.848;37.368;2022-11-09T09:26:57;22.70;;;15.20;;
44147;SDS011;29810;55.848;37.368;2022-11-09T09:29:59;24.10;;;14.50;;
44147;SDS011;29810;55.848;37.368;2022-11-09T09:33:01;22.55;;;15.05;;
44147;SDS011;29810;55.848;37.368;2022-11-09T09:36:03;23.95;;;14.87;;
44147;SDS011;29810;55.848;37.368;2022-11-09T09:39:04;26.92;;;15.70;;
44147;SDS011;29810;55.848;37.368;2022-11-09T09:42:07;20.98;;;14.57;;
44147;SDS011;29810;55.848;37.368;2022-11-09T09:45:21;25.02;;;14.32;;
44147;SDS011;29810;55.848;37.368;2022-11-09T09:48:41;20.70;;;14.90;;
44147;SDS011;29810;55.848;37.368;2022-11-09T09:51:55;26.52;;;14.23;;
44147;SDS011;29810;55.848;37.368;2022-11-09T09:55:07;30.05;;;15.77;;
44147;SDS011;29810;55.848;37.368;2022-11-09T09:58:30;33.38;;;15.40;;
44147;SDS011;29810;55.848;37.368;2022-11-09T10:01:35;33.38;;;15.43;;
44147;SDS011;29810;55.848;37.368;2022-11-09T10:04:39;41.92;;;16.30;;
44147;SDS011;29810;55.848;37.368;2022-11-09T10:22:06;21.60;;;12.75;;
44147;SDS011;29810;55.848;37.368;2022-11-09T10:25:20;18.75;;;13.00;;
44147;SDS011;29810;55.848;37.368;2022-11-09T10:28:28;20.23;;;12.57;;
44147;SDS011;29810;55.848;37.368;2022-11-09T10:31:32;15.65;;;12.23;;
44147;SDS011;29810;55.848;37.368;2022-11-09T10:34:39;15.27;;;12.30;;
44147;SDS011;29810;55.848;37.368;2022-11-09T10:37:43;16.75;;;11.73;;
44147;SDS011;29810;55.848;37.368;2022-11-09T10:44:25;16.15;;;12.23;;
44147;SDS011;29810;55.848;37.368;2022-11-09T10:47:48;19.02;;;12.02;;
44147;SDS011;29810;55.848;37.368;2022-11-09T10:54:49;16.80;;;11.70;;
44147;SDS011;29810;55.848;37.368;2022-11-09T10:58:22;15.88;;;11.80;;
44147;SDS011;29810;55.848;37.368;2022-11-09T11:01:46;14.60;;;11.85;;
44147;SDS011;29810;55.848;37.368;2022-11-09T11:08:28;16.42;;;11.88;;
44147;SDS011;29810;55.848;37.368;2022-11-09T11:12:05;14.90;;;11.82;;
44147;SDS011;29810;55.848;37.368;2022-11-09T11:15:37;13.50;;;11.60;;
44147;SDS011;29810;55.848;37.368;2022-11-09T11:18:59;14.45;;;11.65;;
44147;SDS011;29810;55.848;37.368;2022-11-09T11:22:23;15.43;;;11.32;;
44147;SDS011;29810;55.848;37.368;2022-11-09T11:25:56;16.05;;;12.37;;
44147;SDS011;29810;55.848;37.368;2022-11-09T11:33:14;24.15;;;12.23;;
44147;SDS011;29810;55.848;37.368;2022-11-09T11:40:21;18.75;;;11.32;;
44147;SDS011;29810;55.848;37.368;2022-11-09T11:51:09;18.30;;;11.07;;
44147;SDS011;29810;55.848;37.368;2022-11-09T12:08:52;16.50;;;10.73;;
44147;SDS011;29810;55.848;37.368;2022-11-09T12:12:39;21.45;;;10.80;;
44147;SDS011;29810;55.848;37.368;2022-11-09T12:27:49;35.72;;;9.82;;
44147;SDS011;29810;55.848;37.368;2022-11-09T12:39:00;18.52;;;10.00;;
44147;SDS011;29810;55.848;37.368;2022-11-09T12:42:27;16.83;;;9.35;;
44147;SDS011;29810;55.848;37.368;2022-11-09T12:45:53;24.35;;;10.27;;
44147;SDS011;29810;55.848;37.368;2022-11-09T12:49:22;12.45;;;8.77;;
44147;SDS011;29810;55.848;37.368;2022-11-09T12:52:50;17.23;;;9.18;;
44147;SDS011;29810;55.848;37.368;2022-11-09T12:59:51;13.05;;;8.48;;
44147;SDS011;29810;55.848;37.368;2022-11-09T13:03:18;13.68;;;9.20;;
44147;SDS011;29810;55.848;37.368;2022-11-09T13:06:41;15.75;;;9.57;;
44147;SDS011;29810;55.848;37.368;2022-11-09T13:13:49;13.93;;;9.65;;
44147;SDS011;29810;55.848;37.368;2022-11-09T13:20:44;13.55;;;9.10;;
44147;SDS011;29810;55.848;37.368;2022-11-09T13:27:49;13.68;;;10.57;;
44147;SDS011;29810;55.848;37.368;2022-11-09T13:31:09;13.27;;;10.07;;
44147;SDS011;29810;55.848;37.368;2022-11-09T13:34:46;14.57;;;10.90;;
44147;SDS011;29810;55.848;37.368;2022-11-09T13:38:24;20.55;;;11.52;;
44147;SDS011;29810;55.848;37.368;2022-11-09T13:41:47;17.55;;;11.00;;
44147;SDS011;29810;55.848;37.368;2022-11-09T13:45:51;15.13;;;10.68;;
44147;SDS011;29810;55.848;37.368;2022-11-09T13:48:55;16.33;;;11.15;;
44147;SDS011;29810;55.848;37.368;2022-11-09T13:59:57;20.35;;;12.85;;
44147;SDS011;29810;55.848;37.368;2022-11-09T14:06:42;24.63;;;12.95;;
44147;SDS011;29810;55.848;37.368;2022-11-09T14:24:47;27.65;;;14.73;;
44147;SDS011;29810;55.848;37.368;2022-11-09T14:31:57;18.10;;;12.82;;
44147;SDS011;29810;55.848;37.368;2022-11-09T14:35:24;18.58;;;13.48;;
44147;SDS011;29810;55.848;37.368;2022-11-09T14:38:47;20.77;;;14.13;;
44147;SDS011;29810;55.848;37.368;2022-11-09T14:42:07;17.75;;;13.32;;
44147;SDS011;29810;55.848;37.368;2022-11-09T14:45:36;17.95;;;13.00;;
44147;SDS011;29810;55.848;37.368;2022-11-09T14:49:00;17.62;;;12.50;;
44147;SDS011;29810;55.848;37.368;2022-11-09T14:52:24;18.37;;;14.07;;
44147;SDS011;29810;55.848;37.368;2022-11-09T14:55:50;21.20;;;15.00;;
44147;SDS011;29810;55.848;37.368;2022-11-09T14:59:16;19.80;;;15.85;;
44147;SDS011;29810;55.848;37.368;2022-11-09T15:02:43;19.92;;;16.73;;
44147;SDS011;29810;55.848;37.368;2022-11-09T15:06:07;16.65;;;14.38;;
44147;SDS011;29810;55.848;37.368;2022-11-09T15:09:41;17.80;;;13.95;;
44147;SDS011;29810;55.848;37.368;2022-11-09T15:13:08;17.60;;;14.00;;
44147;SDS011;29810;55.848;37.368;2022-11-09T15:16:31;18.87;;;14.55;;
44147;SDS011;29810;55.848;37.368;2022-11-09T15:23:34;17.83;;;15.00;;
44147;SDS011;29810;55.848;37.368;2022-11-09T15:27:00;19.50;;;15.52;;
44147;SDS011;29810;55.848;37.368;2022-11-09T15:34:23;19.83;;;15.30;;
44147;SDS011;29810;55.848;37.368;2022-11-09T15:41:11;24.83;;;15.70;;
44147;SDS011;29810;55.848;37.368;2022-11-09T15:44:42;22.35;;;16.10;;
44147;SDS011;29810;55.848;37.368;2022-11-09T15:48:07;21.17;;;16.55;;
44147;SDS011;29810;55.848;37.368;2022-11-09T15:51:27;21.50;;;17.05;;
44147;SDS011;29810;55.848;37.368;2022-11-09T15:54:47;21.42;;;16.12;;
44147;SDS011;29810;55.848;37.368;2022-11-09T15:58:09;24.27;;;16.50;;
44147;SDS011;29810;55.848;37.368;2022-11-09T16:01:32;24.37;;;17.37;;
44147;SDS011;29810;55.848;37.368;2022-11-09T16:04:52;25.83;;;17.00;;
44147;SDS011;29810;55.848;37.368;2022-11-09T16:08:13;23.35;;;17.60;;
44147;SDS011;29810;55.848;37.368;2022-11-09T16:11:33;24.35;;;19.08;;
44147;SDS011;29810;55.848;37.368;2022-11-09T16:14:53;24.50;;;19.40;;
44147;SDS011;29810;55.848;37.368;2022-11-09T16:18:13;27.67;;;19.10;;
44147;SDS011;29810;55.848;37.368;2022-11-09T16:21:37;24.83;;;18.00;;
44147;SDS011;29810;55.848;37.368;2022-11-09T16:24:57;23.67;;;18.48;;
44147;SDS011;29810;55.848;37.368;2022-11-09T16:28:18;23.75;;;18.80;;
44147;SDS011;29810;55.848;37.368;2022-11-09T16:31:37;28.15;;;20.30;;
44147;SDS011;29810;55.848;37.368;2022-11-09T16:34:58;23.52;;;19.17;;
44147;SDS011;29810;55.848;37.368;2022-11-09T16:38:18;25.98;;;19.92;;
44147;SDS011;29810;55.848;37.368;2022-11-09T16:41:39;29.00;;;20.65;;
44147;SDS011;29810;55.848;37.368;2022-11-09T16:45:04;31.08;;;19.85;;
44147;SDS011;29810;55.848;37.368;2022-11-09T16:51:50;24.63;;;19.48;;
44147;SDS011;29810;55.848;37.368;2022-11-09T16:55:10;25.40;;;20.27;;
44147;SDS011;29810;55.848;37.368;2022-11-09T16:58:31;27.05;;;20.60;;
44147;SDS011;29810;55.848;37.368;2022-11-09T17:01:52;27.95;;;21.23;;
44147;SDS011;29810;55.848;37.368;2022-11-09T17:05:13;28.67;;;20.95;;
44147;SDS011;29810;55.848;37.368;2022-11-09T17:08:33;25.15;;;20.73;;
44147;SDS011;29810;55.848;37.368;2022-11-09T17:11:53;23.73;;;19.62;;
44147;SDS011;29810;55.848;37.368;2022-11-09T17:15:13;23.80;;;18.77;;
44147;SDS011;29810;55.848;37.368;2022-11-09T17:18:33;25.27;;;20.77;;
44147;SDS011;29810;55.848;37.368;2022-11-09T17:21:53;27.48;;;20.40;;
44147;SDS011;29810;55.848;37.368;2022-11-09T17:25:13;25.15;;;20.60;;
44147;SDS011;29810;55.848;37.368;2022-11-09T17:28:34;23.55;;;19.42;;
44147;SDS011;29810;55.848;37.368;2022-11-09T17:31:56;23.90;;;20.05;;
44147;SDS011;29810;55.848;37.368;2022-11-09T17:35:16;22.73;;;19.02;;
44147;SDS011;29810;55.848;37.368;2022-11-09T17:38:40;25.37;;;19.08;;
44147;SDS011;29810;55.848;37.368;2022-11-09T17:42:03;22.60;;;19.53;;
44147;SDS011;29810;55.848;37.368;2022-11-09T17:45:23;21.23;;;17.95;;
44147;SDS011;29810;55.848;37.368;2022-11-09T17:48:45;20.77;;;18.27;;
44147;SDS011;29810;55.848;37.368;2022-11-09T17:52:07;21.15;;;17.70;;
44147;SDS011;29810;55.848;37.368;2022-11-09T17:55:27;20.90;;;17.30;;
44147;SDS011;29810;55.848;37.368;2022-11-09T17:58:46;19.95;;;16.60;;
44147;SDS011;29810;55.848;37.368;2022-11-09T18:02:07;21.05;;;15.75;;
44147;SDS011;29810;55.848;37.368;2022-11-09T18:05:29;19.83;;;15.98;;
44147;SDS011;29810;55.848;37.368;2022-11-09T18:08:49;19.65;;;15.35;;
44147;SDS011;29810;55.848;37.368;2022-11-09T18:12:09;18.90;;;15.90;;
44147;SDS011;29810;55.848;37.368;2022-11-09T18:15:31;18.25;;;15.00;;
44147;SDS011;29810;55.848;37.368;2022-11-09T18:18:55;18.83;;;15.00;;
44147;SDS011;29810;55.848;37.368;2022-11-09T18:22:17;19.20;;;14.95;;
44147;SDS011;29810;55.848;37.368;2022-11-09T18:25:37;17.35;;;14.52;;
44147;SDS011;29810;55.848;37.368;2022-11-09T18:28:57;16.70;;;14.38;;
44147;SDS011;29810;55.848;37.368;2022-11-09T18:32:17;18.23;;;14.70;;
44147;SDS011;29810;55.848;37.368;2022-11-09T18:35:37;18.83;;;13.98;;
44147;SDS011;29810;55.848;37.368;2022-11-09T18:38:56;17.05;;;14.10;;
44147;SDS011;29810;55.848;37.368;2022-11-09T18:42:16;16.12;;;14.07;;
44147;SDS011;29810;55.848;37.368;2022-11-09T18:45:36;15.93;;;13.82;;
44147;SDS011;29810;55.848;37.368;2022-11-09T18:48:56;16.48;;;14.07;;
44147;SDS011;29810;55.848;37.368;2022-11-09T18:52:16;18.52;;;14.05;;
44147;SDS011;29810;55.848;37.368;2022-11-09T18:55:36;18.65;;;13.82;;
44147;SDS011;29810;55.848;37.368;2022-11-09T18:58:56;19.42;;;14.15;;
44147;SDS011;29810;55.848;37.368;2022-11-09T19:02:17;18.00;;;13.57;;
44147;SDS011;29810;55.848;37.368;2022-11-09T19:05:37;16.90;;;13.23;;
44147;SDS011;29810;55.848;37.368;2022-11-09T19:08:58;15.77;;;12.68;;
44147;SDS011;29810;55.848;37.368;2022-11-09T19:12:37;18.90;;;13.27;;
44147;SDS011;29810;55.848;37.368;2022-11-09T19:16:00;16.25;;;12.50;;
44147;SDS011;29810;55.848;37.368;2022-11-09T19:19:20;15.02;;;12.60;;
44147;SDS011;29810;55.848;37.368;2022-11-09T19:22:40;14.55;;;12.70;;
44147;SDS011;29810;55.848;37.368;2022-11-09T19:26:00;16.75;;;11.95;;
44147;SDS011;29810;55.848;37.368;2022-11-09T19:29:20;13.35;;;11.90;;
44147;SDS011;29810;55.848;37.368;2022-11-09T19:32:40;15.93;;;12.45;;
44147;SDS011;29810;55.848;37.368;2022-11-09T19:36:01;15.63;;;12.07;;
44147;SDS011;29810;55.848;37.368;2022-11-09T19:39:21;16.20;;;12.13;;
44147;SDS011;29810;55.848;37.368;2022-11-09T19:42:41;16.15;;;12.60;;
44147;SDS011;29810;55.848;37.368;2022-11-09T19:46:04;14.90;;;11.90;;
44147;SDS011;29810;55.848;37.368;2022-11-09T19:49:24;15.45;;;12.05;;
44147;SDS011;29810;55.848;37.368;2022-11-09T19:52:47;16.12;;;11.40;;
44147;SDS011;29810;55.848;37.368;2022-11-09T19:56:10;17.12;;;11.48;;
44147;SDS011;29810;55.848;37.368;2022-11-09T19:59:30;18.17;;;12.50;;
44147;SDS011;29810;55.848;37.368;2022-11-09T20:02:50;15.68;;;12.05;;
44147;SDS011;29810;55.848;37.368;2022-11-09T20:06:10;16.35;;;11.98;;
44147;SDS011;29810;55.848;37.368;2022-11-09T20:09:30;13.60;;;10.95;;
44147;SDS011;29810;55.848;37.368;2022-11-09T20:12:50;16.02;;;11.70;;
44147;SDS011;29810;55.848;37.368;2022-11-09T20:16:14;14.52;;;11.43;;
44147;SDS011;29810;55.848;37.368;2022-11-09T20:19:33;13.13;;;11.05;;
44147;SDS011;29810;55.848;37.368;2022-11-09T20:22:53;16.87;;;11.38;;
44147;SDS011;29810;55.848;37.368;2022-11-09T20:26:13;13.15;;;10.80;;
44147;SDS011;29810;55.848;37.368;2022-11-09T20:29:33;13.32;;;11.02;;
44147;SDS011;29810;55.848;37.368;2022-11-09T20:33:05;13.20;;;11.50;;
44147;SDS011;29810;55.848;37.368;2022-11-09T20:36:27;13.93;;;11.43;;